Time;durP1;ratioP1;P1;durP2;ratioP2;P2;SDS_P1;SDS_P2;PMS_P1;PMS_P2;Temp;Humidity;BMP_temperature;BMP_pressure;BME280_temperature;BME280_humidity;BME280_pressure;Samples;Min_cycle;Max_cycle;Signal;HPM_P1;HPM_P2
2023/06/23 00:00:30;;;;;;;6.63;5.10;;;;;;;;;;6185774;23;20024;-91
2023/06/23 00:02:57;;;;;;;9.13;6.50;;;;;;;;;;6186404;23;20016;-90
2023/06/23 00:05:23;;;;;;;9.38;7.00;;;;;;;;;;6209763;23;20434;-91
2023/06/23 00:07:49;;;;;;;6.35;4.63;;;;;;;;;;6211441;23;20016;-95
2023/06/23 00:10:15;;;;;;;7.43;5.47;;;;;;;;;;6210666;23;20349;-93
2023/06/23 00:12:41;;;;;;;8.85;6.45;;;;;;;;;;6210824;23;20024;-92
2023/06/23 00:15:08;;;;;;;11.43;7.03;;;;;;;;;;6212424;23;20307;-91
2023/06/23 00:17:36;;;;;;;9.68;6.18;;;;;;;;;;6211037;23;20319;-92
2023/06/23 00:20:05;;;;;;;10.50;6.40;;;;;;;;;;6186860;23;20020;-92
2023/06/23 00:22:35;;;;;;;8.63;6.00;;;;;;;;;;6213161;23;20008;-93
2023/06/23 00:25:01;;;;;;;9.60;6.20;;;;;;;;;;6213695;23;20031;-92
2023/06/23 00:27:27;;;;;;;9.30;6.22;;;;;;;;;;6212483;23;20044;-92
2023/06/23 00:29:54;;;;;;;7.22;4.75;;;;;;;;;;6214272;23;20013;-92
2023/06/23 00:32:20;;;;;;;9.57;5.78;;;;;;;;;;6188448;23;20346;-92
2023/06/23 00:34:46;;;;;;;7.93;5.07;;;;;;;;;;6215597;23;20021;-92
2023/06/23 00:37:12;;;;;;;9.05;6.22;;;;;;;;;;6188902;23;20019;-90
2023/06/23 00:39:38;;;;;;;9.20;6.53;;;;;;;;;;6227276;23;20009;-90
2023/06/23 00:42:06;;;;;;;9.30;6.70;;;;;;;;;;6240407;23;20005;-91
2023/06/23 00:44:33;;;;;;;10.20;7.03;;;;;;;;;;6239626;23;20060;-92
2023/06/23 00:46:59;;;;;;;10.80;6.53;;;;;;;;;;6239999;23;20024;-91
2023/06/23 00:49:26;;;;;;;7.25;6.03;;;;;;;;;;6218111;23;20059;-94
2023/06/23 00:51:53;;;;;;;9.32;6.45;;;;;;;;;;6211893;23;20021;-91
2023/06/23 00:54:19;;;;;;;8.30;5.90;;;;;;;;;;6211605;23;20044;-91
2023/06/23 00:56:45;;;;;;;9.65;5.68;;;;;;;;;;6211363;23;20021;-91
2023/06/23 00:59:11;;;;;;;7.43;6.05;;;;;;;;;;6212146;23;20338;-89
2023/06/23 01:01:37;;;;;;;7.60;6.28;;;;;;;;;;6211975;23;20046;-91
2023/06/23 01:04:03;;;;;;;10.85;6.72;;;;;;;;;;6186663;23;20012;-89
2023/06/23 01:06:29;;;;;;;10.55;7.05;;;;;;;;;;6213152;23;20020;-91
2023/06/23 01:09:05;;;;;;;9.70;6.80;;;;;;;;;;6211372;23;20017;-91
2023/06/23 01:11:39;;;;;;;11.57;7.35;;;;;;;;;;6184540;23;20442;-89
2023/06/23 01:14:07;;;;;;;11.52;6.93;;;;;;;;;;6210552;23;20067;-88
2023/06/23 01:16:38;;;;;;;9.98;6.35;;;;;;;;;;6210989;23;20017;-90
2023/06/23 01:19:08;;;;;;;10.15;6.38;;;;;;;;;;6210456;23;20019;-89
2023/06/23 01:21:54;;;;;;;11.05;6.50;;;;;;;;;;6210158;23;20005;-89
2023/06/23 01:24:26;;;;;;;9.70;7.13;;;;;;;;;;6211292;23;20012;-88
2023/06/23 01:26:55;;;;;;;9.93;7.22;;;;;;;;;;6209382;23;20040;-89
2023/06/23 01:29:41;;;;;;;8.88;6.85;;;;;;;;;;6210107;23;20379;-90
2023/06/23 01:32:26;;;;;;;9.15;6.80;;;;;;;;;;6212047;23;20090;-88
2023/06/23 01:34:55;;;;;;;8.23;6.60;;;;;;;;;;6210708;23;20121;-88
2023/06/23 01:37:24;;;;;;;13.35;7.78;;;;;;;;;;6210458;23;20379;-89
2023/06/23 01:39:53;;;;;;;10.35;6.85;;;;;;;;;;6210700;23;20019;-89
2023/06/23 01:42:20;;;;;;;9.85;7.00;;;;;;;;;;6212036;23;20009;-89
2023/06/23 01:44:51;;;;;;;10.88;6.57;;;;;;;;;;6211879;23;20021;-88
2023/06/23 01:47:19;;;;;;;12.23;7.28;;;;;;;;;;6212200;23;20020;-89
2023/06/23 01:49:47;;;;;;;10.07;7.90;;;;;;;;;;6210527;23;20059;-89
2023/06/23 01:52:14;;;;;;;9.15;6.55;;;;;;;;;;6211722;23;20374;-89
2023/06/23 01:54:41;;;;;;;9.60;6.68;;;;;;;;;;6209368;23;20021;-89
2023/06/23 01:57:08;;;;;;;7.78;5.75;;;;;;;;;;6209780;23;20099;-90
2023/06/23 01:59:36;;;;;;;10.20;6.70;;;;;;;;;;6210361;23;20021;-89
2023/06/23 02:02:02;;;;;;;7.78;5.88;;;;;;;;;;6212285;23;20016;-90
2023/06/23 02:04:29;;;;;;;7.47;6.30;;;;;;;;;;6210198;23;20422;-89
2023/06/23 02:06:56;;;;;;;8.73;5.80;;;;;;;;;;6212108;23;20345;-89
2023/06/23 02:09:28;;;;;;;9.85;6.15;;;;;;;;;;6208335;23;20454;-89
2023/06/23 02:11:55;;;;;;;10.35;7.15;;;;;;;;;;6210446;23;20017;-89
2023/06/23 02:14:22;;;;;;;9.60;6.05;;;;;;;;;;6209164;23;20016;-89
2023/06/23 02:16:48;;;;;;;9.38;7.05;;;;;;;;;;6210100;23;20506;-90
2023/06/23 02:19:14;;;;;;;9.23;6.57;;;;;;;;;;6209671;23;20016;-89
2023/06/23 02:21:41;;;;;;;9.35;6.28;;;;;;;;;;6212209;23;20020;-90
2023/06/23 02:24:07;;;;;;;9.48;6.35;;;;;;;;;;6210622;23;20013;-88
2023/06/23 02:26:35;;;;;;;7.72;6.00;;;;;;;;;;6209632;23;20020;-88
2023/06/23 02:29:01;;;;;;;8.07;5.80;;;;;;;;;;6211657;23;20051;-89
2023/06/23 02:31:27;;;;;;;9.18;5.97;;;;;;;;;;6211052;23;20438;-89
2023/06/23 02:33:54;;;;;;;9.10;5.85;;;;;;;;;;6211808;23;20013;-88
2023/06/23 02:36:21;;;;;;;9.70;6.22;;;;;;;;;;6209198;23;20013;-91
2023/06/23 02:38:49;;;;;;;11.52;6.32;;;;;;;;;;6209241;23;20017;-90
2023/06/23 02:41:16;;;;;;;8.38;6.10;;;;;;;;;;6210457;23;20012;-90
2023/06/23 02:43:46;;;;;;;11.05;6.80;;;;;;;;;;6208288;23;20337;-90
2023/06/23 02:46:13;;;;;;;7.32;5.47;;;;;;;;;;6209179;23;20167;-89
2023/06/23 02:48:40;;;;;;;9.38;6.10;;;;;;;;;;6211597;23;20334;-89
2023/06/23 02:51:09;;;;;;;7.90;6.45;;;;;;;;;;6210947;23;20434;-90
2023/06/23 02:53:36;;;;;;;9.30;6.85;;;;;;;;;;6211086;23;20013;-90
2023/06/23 02:56:05;;;;;;;8.05;5.68;;;;;;;;;;6211241;23;20096;-89
2023/06/23 02:58:32;;;;;;;8.88;6.40;;;;;;;;;;6211457;23;20012;-89
2023/06/23 03:01:01;;;;;;;8.38;6.18;;;;;;;;;;6211287;23;20367;-89
2023/06/23 03:03:27;;;;;;;9.45;6.25;;;;;;;;;;6184825;23;20012;-89
2023/06/23 03:05:56;;;;;;;11.38;7.43;;;;;;;;;;6209613;23;20016;-89
2023/06/23 03:08:23;;;;;;;9.18;7.05;;;;;;;;;;6209343;23;20439;-90
2023/06/23 03:10:49;;;;;;;13.02;7.13;;;;;;;;;;6209697;23;20091;-89
2023/06/23 03:13:15;;;;;;;12.48;7.85;;;;;;;;;;6210758;23;20020;-89
2023/06/23 03:15:41;;;;;;;11.27;8.07;;;;;;;;;;6211190;23;20009;-90
2023/06/23 03:18:16;;;;;;;14.02;8.70;;;;;;;;;;6211966;23;20013;-89
2023/06/23 03:20:50;;;;;;;10.50;7.53;;;;;;;;;;6210079;23;20035;-89
2023/06/23 03:23:17;;;;;;;11.45;8.43;;;;;;;;;;6208550;23;20021;-90
2023/06/23 03:25:46;;;;;;;10.48;6.95;;;;;;;;;;6211493;23;20012;-90
2023/06/23 03:28:15;;;;;;;9.93;7.53;;;;;;;;;;6211034;23;20031;-91
2023/06/23 03:30:43;;;;;;;12.88;9.05;;;;;;;;;;6207692;23;20016;-89
2023/06/23 03:33:13;;;;;;;12.65;8.43;;;;;;;;;;6211196;23;20016;-89
2023/06/23 03:35:42;;;;;;;13.70;8.80;;;;;;;;;;6210072;23;20016;-89
2023/06/23 03:38:10;;;;;;;13.85;8.18;;;;;;;;;;6208082;23;20012;-90
2023/06/23 03:40:42;;;;;;;12.82;8.57;;;;;;;;;;6211295;23;20095;-88
2023/06/23 03:43:17;;;;;;;11.60;7.45;;;;;;;;;;6209092;23;20021;-89
2023/06/23 03:45:46;;;;;;;12.35;7.57;;;;;;;;;;6209754;23;20020;-89
2023/06/23 03:48:13;;;;;;;12.40;8.77;;;;;;;;;;6211142;23;20169;-89
2023/06/23 03:50:40;;;;;;;11.82;8.20;;;;;;;;;;6209098;23;20350;-88
2023/06/23 03:53:06;;;;;;;13.13;8.68;;;;;;;;;;6209383;23;20048;-89
2023/06/23 03:55:34;;;;;;;11.63;7.38;;;;;;;;;;6184336;23;20021;-89
2023/06/23 03:58:05;;;;;;;9.63;7.47;;;;;;;;;;6208836;23;20026;-89
2023/06/23 04:00:32;;;;;;;11.88;7.55;;;;;;;;;;6209353;23;20012;-89
2023/06/23 04:02:59;;;;;;;11.43;7.20;;;;;;;;;;6207509;23;20024;-89
2023/06/23 04:05:26;;;;;;;11.18;7.32;;;;;;;;;;6208299;23;20017;-88
2023/06/23 04:07:53;;;;;;;9.50;7.10;;;;;;;;;;6209592;23;20075;-89
2023/06/23 04:10:20;;;;;;;10.88;6.63;;;;;;;;;;6209085;23;20020;-89
2023/06/23 04:12:47;;;;;;;8.23;5.80;;;;;;;;;;6208936;23;20048;-89
2023/06/23 04:15:13;;;;;;;8.80;6.70;;;;;;;;;;6210376;23;20087;-88
2023/06/23 04:17:41;;;;;;;12.00;6.75;;;;;;;;;;6210610;23;20074;-90
2023/06/23 04:20:08;;;;;;;10.75;6.10;;;;;;;;;;6210882;23;20017;-89
2023/06/23 04:22:35;;;;;;;9.45;6.28;;;;;;;;;;6210559;23;20093;-89
2023/06/23 04:25:02;;;;;;;12.65;7.18;;;;;;;;;;6211529;23;20020;-88
2023/06/23 04:27:29;;;;;;;8.23;6.30;;;;;;;;;;6212576;23;20012;-88
2023/06/23 04:29:55;;;;;;;10.70;6.45;;;;;;;;;;6211154;23;20013;-87
2023/06/23 04:32:22;;;;;;;9.80;5.68;;;;;;;;;;6209562;23;20024;-88
2023/06/23 04:34:48;;;;;;;9.50;6.43;;;;;;;;;;6210579;23;20017;-89
2023/06/23 04:37:22;;;;;;;8.27;5.95;;;;;;;;;;6212348;23;20093;-88
2023/06/23 04:39:54;;;;;;;9.05;5.32;;;;;;;;;;6213129;23;20008;-88
2023/06/23 04:42:24;;;;;;;9.40;6.13;;;;;;;;;;6211813;23;20333;-88
2023/06/23 04:44:52;;;;;;;9.45;6.25;;;;;;;;;;6185939;23;20024;-88
2023/06/23 04:47:20;;;;;;;9.88;6.18;;;;;;;;;;6212012;23;20012;-91
2023/06/23 04:49:48;;;;;;;9.18;6.25;;;;;;;;;;6210484;23;20383;-89
2023/06/23 04:52:15;;;;;;;8.43;5.25;;;;;;;;;;6210181;23;20013;-88
2023/06/23 04:54:44;;;;;;;10.13;6.22;;;;;;;;;;6210873;23;20013;-88
2023/06/23 04:57:23;;;;;;;12.32;6.95;;;;;;;;;;6212410;23;20377;-88
2023/06/23 04:59:51;;;;;;;6.65;5.85;;;;;;;;;;6210642;23;20016;-87
2023/06/23 05:02:18;;;;;;;9.50;7.13;;;;;;;;;;6209576;23;20017;-88
2023/06/23 05:04:44;;;;;;;6.07;5.07;;;;;;;;;;6211678;23;20023;-89
2023/06/23 05:07:12;;;;;;;10.68;6.18;;;;;;;;;;6212744;23;20087;-88
2023/06/23 05:09:42;;;;;;;7.22;5.07;;;;;;;;;;6210532;23;20024;-88
2023/06/23 05:12:10;;;;;;;8.30;5.80;;;;;;;;;;6212089;23;20015;-89
2023/06/23 05:14:38;;;;;;;9.82;6.00;;;;;;;;;;6213007;23;20027;-89
2023/06/23 05:17:04;;;;;;;10.75;5.68;;;;;;;;;;6210461;23;20020;-90
2023/06/23 05:19:31;;;;;;;10.30;6.32;;;;;;;;;;6211968;23;20136;-89
2023/06/23 05:21:59;;;;;;;6.28;5.28;;;;;;;;;;6212341;23;20016;-90
2023/06/23 05:24:25;;;;;;;8.38;5.65;;;;;;;;;;6209954;23;20027;-91
2023/06/23 05:26:54;;;;;;;9.20;5.45;;;;;;;;;;6208183;23;20024;-92
2023/06/23 05:29:21;;;;;;;9.52;5.93;;;;;;;;;;6184732;23;20028;-88
2023/06/23 05:31:49;;;;;;;7.90;6.38;;;;;;;;;;6210994;23;20024;-89
2023/06/23 05:34:17;;;;;;;9.52;5.53;;;;;;;;;;6209880;23;20021;-88
2023/06/23 05:36:44;;;;;;;7.72;5.25;;;;;;;;;;6210452;23;20342;-88
2023/06/23 05:39:11;;;;;;;8.63;5.53;;;;;;;;;;6210379;23;20020;-86
2023/06/23 05:41:37;;;;;;;9.02;5.68;;;;;;;;;;6211536;23;20012;-87
2023/06/23 05:44:04;;;;;;;6.38;5.15;;;;;;;;;;6211951;23;20013;-88
2023/06/23 05:46:31;;;;;;;10.02;5.25;;;;;;;;;;6208523;23;20043;-90
2023/06/23 05:49:03;;;;;;;8.20;5.22;;;;;;;;;;6209153;23;20028;-86
2023/06/23 05:51:31;;;;;;;7.47;5.18;;;;;;;;;;6212029;23;20456;-86
2023/06/23 05:53:59;;;;;;;8.52;5.90;;;;;;;;;;6208711;23;20560;-88
2023/06/23 05:56:28;;;;;;;10.77;6.70;;;;;;;;;;6207840;23;20029;-87
2023/06/23 05:58:57;;;;;;;9.13;5.85;;;;;;;;;;6209591;23;20012;-88
2023/06/23 06:01:24;;;;;;;9.05;6.40;;;;;;;;;;6209651;23;20059;-91
2023/06/23 06:04:00;;;;;;;10.07;7.53;;;;;;;;;;6209629;23;20017;-90
2023/06/23 06:06:28;;;;;;;10.48;6.88;;;;;;;;;;6208064;23;20342;-87
2023/06/23 06:08:57;;;;;;;10.70;8.30;;;;;;;;;;6209789;23;20062;-87
2023/06/23 06:11:24;;;;;;;11.32;7.07;;;;;;;;;;6206753;23;20480;-86
2023/06/23 06:13:51;;;;;;;10.60;8.30;;;;;;;;;;6209952;23;20334;-87
2023/06/23 06:16:18;;;;;;;8.95;7.57;;;;;;;;;;6184055;23;20016;-86
2023/06/23 06:18:46;;;;;;;14.73;6.75;;;;;;;;;;6211475;23;20354;-88
2023/06/23 06:21:13;;;;;;;8.07;5.90;;;;;;;;;;6209597;23;20461;-86
2023/06/23 06:23:40;;;;;;;7.88;5.93;;;;;;;;;;6211199;23;20017;-87
2023/06/23 06:26:07;;;;;;;8.10;6.03;;;;;;;;;;6210790;23;20012;-86
2023/06/23 06:28:34;;;;;;;8.68;6.28;;;;;;;;;;6211196;23;20024;-87
2023/06/23 06:31:01;;;;;;;10.85;6.88;;;;;;;;;;6207941;23;20339;-86
2023/06/23 06:33:28;;;;;;;9.13;6.43;;;;;;;;;;6207343;23;20021;-87
2023/06/23 06:35:55;;;;;;;8.15;5.70;;;;;;;;;;6208189;23;20346;-84
2023/06/23 06:38:23;;;;;;;6.45;5.50;;;;;;;;;;6210040;23;20148;-87
2023/06/23 06:40:51;;;;;;;7.53;5.18;;;;;;;;;;6209068;23;20343;-85
2023/06/23 06:43:17;;;;;;;8.63;6.45;;;;;;;;;;6209524;23;20017;-85
2023/06/23 06:45:45;;;;;;;8.30;5.80;;;;;;;;;;6210417;23;20048;-88
2023/06/23 06:48:11;;;;;;;8.25;6.20;;;;;;;;;;6209253;23;20048;-86
2023/06/23 06:50:37;;;;;;;7.43;5.32;;;;;;;;;;6211501;23;20362;-86
2023/06/23 06:53:04;;;;;;;7.80;5.10;;;;;;;;;;6209306;23;20016;-86
2023/06/23 06:55:31;;;;;;;8.27;5.85;;;;;;;;;;6211411;23;20383;-85
2023/06/23 06:57:57;;;;;;;8.65;6.47;;;;;;;;;;6210487;23;20067;-88
2023/06/23 07:00:24;;;;;;;6.47;4.80;;;;;;;;;;6209142;23;20012;-88
2023/06/23 07:02:50;;;;;;;7.38;4.68;;;;;;;;;;6209071;23;20384;-88
2023/06/23 07:05:16;;;;;;;6.28;4.75;;;;;;;;;;6209143;23;20017;-87
2023/06/23 07:07:43;;;;;;;6.60;4.57;;;;;;;;;;6211074;23;20311;-86
2023/06/23 07:10:09;;;;;;;6.85;5.70;;;;;;;;;;6209153;23;20096;-87
2023/06/23 07:12:35;;;;;;;7.03;4.55;;;;;;;;;;6209781;23;20016;-88
2023/06/23 07:15:01;;;;;;;5.22;4.35;;;;;;;;;;6210075;23;20070;-85
2023/06/23 07:17:27;;;;;;;7.72;4.43;;;;;;;;;;6207737;23;20024;-84
2023/06/23 07:19:54;;;;;;;4.82;4.18;;;;;;;;;;6210058;23;20017;-84
2023/06/23 07:22:20;;;;;;;4.82;4.00;;;;;;;;;;6207784;23;20024;-82
2023/06/23 07:24:46;;;;;;;9.02;5.10;;;;;;;;;;6207778;23;20024;-83
2023/06/23 07:27:14;;;;;;;6.28;4.30;;;;;;;;;;6209691;23;20020;-88
2023/06/23 07:29:41;;;;;;;6.70;4.32;;;;;;;;;;6207929;23;20104;-86
2023/06/23 07:32:08;;;;;;;5.72;4.20;;;;;;;;;;6210690;23;20012;-85
2023/06/23 07:34:34;;;;;;;6.10;4.10;;;;;;;;;;6208840;23;20092;-84
2023/06/23 07:37:00;;;;;;;7.43;4.43;;;;;;;;;;6206953;23;20016;-86
2023/06/23 07:39:26;;;;;;;4.60;3.95;;;;;;;;;;6207948;23;20023;-87
2023/06/23 07:41:52;;;;;;;4.60;3.92;;;;;;;;;;6209245;23;20444;-85
2023/06/23 07:44:18;;;;;;;5.07;4.07;;;;;;;;;;6209708;23;20074;-85
2023/06/23 07:46:44;;;;;;;6.32;4.25;;;;;;;;;;6184374;23;20030;-85
2023/06/23 07:49:10;;;;;;;4.85;3.50;;;;;;;;;;6204313;23;20025;-86
2023/06/23 07:51:36;;;;;;;5.20;3.65;;;;;;;;;;6208828;23;20331;-86
2023/06/23 07:54:02;;;;;;;5.38;3.97;;;;;;;;;;6207598;23;20029;-86
2023/06/23 07:56:28;;;;;;;4.97;4.00;;;;;;;;;;6206558;23;20435;-85
2023/06/23 07:58:54;;;;;;;5.20;4.60;;;;;;;;;;6207905;23;20047;-86
2023/06/23 08:01:20;;;;;;;7.20;4.40;;;;;;;;;;6207154;23;20111;-85
2023/06/23 08:03:46;;;;;;;6.88;4.80;;;;;;;;;;6210202;23;20060;-86
2023/06/23 08:06:13;;;;;;;5.82;4.20;;;;;;;;;;6208136;23;20021;-85
2023/06/23 08:08:40;;;;;;;5.05;3.92;;;;;;;;;;6209061;23;20021;-82
2023/06/23 08:11:06;;;;;;;6.80;4.35;;;;;;;;;;6210927;23;20047;-87
2023/06/23 08:13:32;;;;;;;5.57;4.07;;;;;;;;;;6210682;23;20391;-83
2023/06/23 08:15:58;;;;;;;4.80;3.72;;;;;;;;;;6211119;23;20339;-84
2023/06/23 08:18:24;;;;;;;5.63;4.30;;;;;;;;;;6208702;23;20013;-86
2023/06/23 08:20:50;;;;;;;4.30;3.90;;;;;;;;;;6209374;23;20039;-83
2023/06/23 08:23:16;;;;;;;5.72;4.15;;;;;;;;;;6209017;23;20027;-84
2023/06/23 08:25:42;;;;;;;5.60;3.40;;;;;;;;;;6207440;23;20024;-84
2023/06/23 08:28:08;;;;;;;3.35;3.05;;;;;;;;;;6209154;23;20088;-86
2023/06/23 08:30:34;;;;;;;3.95;3.42;;;;;;;;;;6208620;23;20395;-85
2023/06/23 08:33:00;;;;;;;4.97;4.18;;;;;;;;;;6210022;23;20071;-85
2023/06/23 08:35:27;;;;;;;5.00;3.72;;;;;;;;;;6207368;23;20016;-84
2023/06/23 08:37:53;;;;;;;5.30;3.55;;;;;;;;;;6210957;23;20008;-85
2023/06/23 08:40:20;;;;;;;5.18;3.28;;;;;;;;;;6208141;23;20012;-85
2023/06/23 08:42:46;;;;;;;4.65;2.83;;;;;;;;;;6211281;23;20015;-84
2023/06/23 08:45:12;;;;;;;4.50;3.22;;;;;;;;;;6209833;23;20016;-85
2023/06/23 08:47:43;;;;;;;3.38;3.00;;;;;;;;;;6208296;23;20016;-83
2023/06/23 08:50:09;;;;;;;4.15;3.75;;;;;;;;;;6206387;23;20402;-83
2023/06/23 08:52:35;;;;;;;3.45;3.08;;;;;;;;;;6206573;23;20021;-89
2023/06/23 08:55:02;;;;;;;3.97;2.65;;;;;;;;;;6209657;23;20021;-85
2023/06/23 08:57:28;;;;;;;2.53;2.00;;;;;;;;;;6210215;23;20017;-85
2023/06/23 08:59:55;;;;;;;3.25;2.80;;;;;;;;;;6209748;23;20447;-83
2023/06/23 09:02:21;;;;;;;5.07;2.55;;;;;;;;;;6210434;23;20019;-85
2023/06/23 09:04:47;;;;;;;3.45;2.70;;;;;;;;;;6209581;23;20444;-86
2023/06/23 09:07:14;;;;;;;3.55;2.70;;;;;;;;;;6211732;23;20361;-85
2023/06/23 09:09:42;;;;;;;3.15;2.60;;;;;;;;;;6211730;23;20404;-83
2023/06/23 09:12:10;;;;;;;4.35;3.40;;;;;;;;;;6210965;23;20083;-84
2023/06/23 09:14:37;;;;;;;3.53;2.90;;;;;;;;;;6210910;23;20095;-86
2023/06/23 09:17:03;;;;;;;3.42;2.60;;;;;;;;;;6210409;23;20012;-86
2023/06/23 09:19:32;;;;;;;2.63;2.40;;;;;;;;;;6210561;23;20051;-85
2023/06/23 09:21:59;;;;;;;3.35;2.45;;;;;;;;;;6210833;23;20020;-85
2023/06/23 09:24:38;;;;;;;3.25;2.80;;;;;;;;;;6209751;23;20044;-84
2023/06/23 09:27:04;;;;;;;2.75;2.55;;;;;;;;;;6209916;23;20028;-84
2023/06/23 09:29:30;;;;;;;2.97;2.17;;;;;;;;;;6211106;23;20071;-86
2023/06/23 09:31:59;;;;;;;3.97;2.83;;;;;;;;;;6210354;23;20020;-85
2023/06/23 09:34:25;;;;;;;5.03;3.15;;;;;;;;;;6210242;23;20016;-86
2023/06/23 09:36:52;;;;;;;3.40;2.55;;;;;;;;;;6210518;23;20311;-85
2023/06/23 09:39:18;;;;;;;3.03;2.70;;;;;;;;;;6211544;23;20017;-85
2023/06/23 09:41:46;;;;;;;2.50;2.30;;;;;;;;;;6210871;23;20009;-84
2023/06/23 09:44:13;;;;;;;4.15;2.85;;;;;;;;;;6210834;23;20087;-85
2023/06/23 09:46:39;;;;;;;2.70;2.50;;;;;;;;;;6209116;23;20024;-86
2023/06/23 09:49:07;;;;;;;3.53;2.85;;;;;;;;;;6209972;23;20022;-88
2023/06/23 09:51:37;;;;;;;2.30;2.10;;;;;;;;;;6208670;23;20067;-89
2023/06/23 09:54:03;;;;;;;;;;;;;;;;;;6209821;23;20055;-92
2023/06/23 09:56:29;;;;;;;2.92;2.35;;;;;;;;;;6210636;23;20237;-89
2023/06/23 09:58:55;;;;;;;4.97;2.72;;;;;;;;;;6211749;23;20021;-88
2023/06/23 10:01:22;;;;;;;3.95;2.75;;;;;;;;;;6206358;23;20055;-91
2023/06/23 10:03:52;;;;;;;4.00;2.80;;;;;;;;;;6211494;23;20075;-85
2023/06/23 10:06:28;;;;;;;4.57;2.88;;;;;;;;;;6210125;23;20012;-85
2023/06/23 10:08:58;;;;;;;3.75;2.72;;;;;;;;;;6211557;23;20020;-85
2023/06/23 10:11:31;;;;;;;3.97;2.78;;;;;;;;;;6208677;23;20019;-87
2023/06/23 10:14:04;;;;;;;3.47;2.53;;;;;;;;;;6210463;23;20020;-85
2023/06/23 10:16:31;;;;;;;3.53;2.30;;;;;;;;;;6209447;23;20017;-84
2023/06/23 10:18:57;;;;;;;3.45;2.30;;;;;;;;;;6210171;23;20019;-85
2023/06/23 10:21:23;;;;;;;3.63;2.03;;;;;;;;;;6211000;23;20024;-85
2023/06/23 10:23:50;;;;;;;2.20;2.00;;;;;;;;;;6210717;23;20016;-84
2023/06/23 10:26:17;;;;;;;2.88;2.50;;;;;;;;;;6209962;23;20063;-85
2023/06/23 10:28:46;;;;;;;2.97;2.40;;;;;;;;;;6208374;23;20040;-85
2023/06/23 10:31:12;;;;;;;3.10;2.50;;;;;;;;;;6208312;23;20020;-89
2023/06/23 10:33:39;;;;;;;4.57;2.90;;;;;;;;;;6209550;23;20124;-82
2023/06/23 10:36:07;;;;;;;2.50;2.30;;;;;;;;;;6209632;23;20012;-83
2023/06/23 10:38:34;;;;;;;3.55;2.50;;;;;;;;;;6210411;23;20009;-84
2023/06/23 10:41:01;;;;;;;3.67;2.85;;;;;;;;;;6211367;23;20013;-85
2023/06/23 10:43:33;;;;;;;2.85;2.60;;;;;;;;;;6210597;23;20051;-87
2023/06/23 10:46:00;;;;;;;2.70;2.50;;;;;;;;;;6210995;23;20016;-86
2023/06/23 10:48:26;;;;;;;3.13;2.70;;;;;;;;;;6211496;23;20013;-86
2023/06/23 10:50:52;;;;;;;3.00;2.70;;;;;;;;;;6209412;23;20023;-86
2023/06/23 10:53:20;;;;;;;3.25;2.60;;;;;;;;;;6210806;23;20013;-87
2023/06/23 10:55:46;;;;;;;3.28;2.35;;;;;;;;;;6211543;23;20043;-83
2023/06/23 10:58:13;;;;;;;3.00;2.67;;;;;;;;;;6211275;23;20024;-86
2023/06/23 11:00:39;;;;;;;2.78;2.53;;;;;;;;;;6211969;23;20032;-85
2023/06/23 11:03:08;;;;;;;3.33;2.83;;;;;;;;;;6209816;23;20327;-86
2023/06/23 11:05:35;;;;;;;4.95;3.05;;;;;;;;;;6209240;23;20021;-85
2023/06/23 11:08:05;;;;;;;4.03;2.17;;;;;;;;;;6209419;23;20013;-85
2023/06/23 11:10:50;;;;;;;3.53;2.88;;;;;;;;;;6209498;23;20459;-85
2023/06/23 11:13:16;;;;;;;2.95;2.40;;;;;;;;;;6209262;23;20020;-85
2023/06/23 11:15:58;;;;;;;6.63;3.58;;;;;;;;;;6209842;23;20092;-86
2023/06/23 11:18:26;;;;;;;2.30;2.10;;;;;;;;;;6209434;23;20044;-85
2023/06/23 11:20:52;;;;;;;3.55;2.40;;;;;;;;;;6209085;23;20095;-85
2023/06/23 11:23:18;;;;;;;2.55;2.28;;;;;;;;;;6207376;23;20017;-85
2023/06/23 11:25:46;;;;;;;2.50;2.28;;;;;;;;;;6209463;23;20020;-85
2023/06/23 11:28:24;;;;;;;3.00;2.25;;;;;;;;;;6211198;23;20374;-85
2023/06/23 11:30:54;;;;;;;3.15;2.00;;;;;;;;;;6211110;23;20008;-85
2023/06/23 11:33:26;;;;;;;4.68;2.70;;;;;;;;;;6209865;23;20020;-87
2023/06/23 11:35:53;;;;;;;3.15;2.20;;;;;;;;;;6210312;23;20088;-85
2023/06/23 11:38:19;;;;;;;2.38;2.15;;;;;;;;;;6210276;23;20008;-84
2023/06/23 11:40:46;;;;;;;2.38;2.17;;;;;;;;;;6209578;23;20219;-86
2023/06/23 11:43:14;;;;;;;2.30;2.00;;;;;;;;;;6211133;23;20055;-85
2023/06/23 11:45:51;;;;;;;2.17;1.83;;;;;;;;;;6209673;23;20315;-85
2023/06/23 11:48:17;;;;;;;2.58;2.38;;;;;;;;;;6209296;23;20017;-84
2023/06/23 11:50:43;;;;;;;3.00;2.50;;;;;;;;;;6208715;23;20021;-84
2023/06/23 11:53:10;;;;;;;2.53;1.70;;;;;;;;;;6208894;23;20021;-84
2023/06/23 11:55:36;;;;;;;2.10;1.85;;;;;;;;;;6210863;23;20327;-85
2023/06/23 11:58:03;;;;;;;4.88;2.78;;;;;;;;;;6209457;23;20071;-86
2023/06/23 12:00:30;;;;;;;2.85;2.08;;;;;;;;;;6209718;23;20450;-86
2023/06/23 12:02:58;;;;;;;2.50;2.10;;;;;;;;;;6209723;23;20024;-86
2023/06/23 12:05:24;;;;;;;2.22;2.03;;;;;;;;;;6210455;23;20009;-84
2023/06/23 12:07:50;;;;;;;3.38;2.03;;;;;;;;;;6208858;23;20013;-86
2023/06/23 12:10:17;;;;;;;2.28;2.08;;;;;;;;;;6184159;23;20394;-87
2023/06/23 12:12:45;;;;;;;2.95;2.10;;;;;;;;;;6210974;23;20012;-83
2023/06/23 12:15:11;;;;;;;2.72;2.45;;;;;;;;;;6211253;23;20263;-85
2023/06/23 12:17:43;;;;;;;2.67;2.33;;;;;;;;;;6209695;23;20044;-84
2023/06/23 12:20:10;;;;;;;2.35;2.15;;;;;;;;;;6208823;23;20013;-84
2023/06/23 12:22:37;;;;;;;2.35;2.03;;;;;;;;;;6208708;23;20024;-85
2023/06/23 12:25:04;;;;;;;2.83;2.17;;;;;;;;;;6209225;23;20020;-88
2023/06/23 12:27:30;;;;;;;2.95;2.58;;;;;;;;;;6211124;23;20023;-87
2023/06/23 12:29:56;;;;;;;3.83;2.50;;;;;;;;;;6210902;23;20012;-84
2023/06/23 12:32:29;;;;;;;2.80;2.60;;;;;;;;;;6208492;23;20100;-85
2023/06/23 12:34:55;;;;;;;2.67;2.38;;;;;;;;;;6209783;23;20017;-84
2023/06/23 12:37:21;;;;;;;4.15;2.63;;;;;;;;;;6209344;23;20024;-84
2023/06/23 12:39:54;;;;;;;2.78;2.33;;;;;;;;;;6212797;23;20013;-84
2023/06/23 12:42:21;;;;;;;4.03;2.00;;;;;;;;;;6210579;23;20346;-85
2023/06/23 12:44:48;;;;;;;2.22;2.00;;;;;;;;;;6213043;23;20017;-85
2023/06/23 12:47:14;;;;;;;4.68;2.97;;;;;;;;;;6185026;23;20050;-85
2023/06/23 12:49:41;;;;;;;3.50;2.17;;;;;;;;;;6211191;23;20476;-84
2023/06/23 12:52:10;;;;;;;2.55;1.98;;;;;;;;;;6210595;23;20020;-88
2023/06/23 12:54:36;;;;;;;2.90;2.28;;;;;;;;;;6210135;23;20074;-84
2023/06/23 12:57:03;;;;;;;2.22;2.03;;;;;;;;;;6212276;23;20444;-85
2023/06/23 12:59:30;;;;;;;2.03;1.88;;;;;;;;;;6212726;23;20021;-85
2023/06/23 13:01:56;;;;;;;3.28;2.42;;;;;;;;;;6185553;23;20024;-85
2023/06/23 13:04:23;;;;;;;2.92;2.05;;;;;;;;;;6210782;23;20029;-87
2023/06/23 13:06:52;;;;;;;3.00;2.70;;;;;;;;;;6210962;23;20017;-84
2023/06/23 13:09:18;;;;;;;3.75;2.63;;;;;;;;;;6209592;23;20028;-86
2023/06/23 13:11:44;;;;;;;3.35;2.25;;;;;;;;;;6212155;23;20013;-85
2023/06/23 13:14:11;;;;;;;2.72;2.42;;;;;;;;;;6210577;23;20092;-86
2023/06/23 13:16:37;;;;;;;3.60;2.67;;;;;;;;;;6210823;23;20016;-85
2023/06/23 13:19:04;;;;;;;3.58;2.63;;;;;;;;;;6210732;23;20020;-83
2023/06/23 13:21:30;;;;;;;3.05;2.60;;;;;;;;;;6212728;23;20016;-87
2023/06/23 13:23:56;;;;;;;2.78;2.15;;;;;;;;;;6210885;23;20016;-86
2023/06/23 13:26:22;;;;;;;3.10;2.80;;;;;;;;;;6209774;23;20039;-85
2023/06/23 13:28:48;;;;;;;3.80;2.60;;;;;;;;;;6210739;23;20021;-85
2023/06/23 13:31:14;;;;;;;3.47;3.17;;;;;;;;;;6211617;23;20024;-85
2023/06/23 13:33:40;;;;;;;5.10;2.90;;;;;;;;;;6212379;23;20017;-85
2023/06/23 13:36:06;;;;;;;3.65;2.95;;;;;;;;;;6210661;23;20465;-86
2023/06/23 13:38:32;;;;;;;2.25;2.03;;;;;;;;;;6210472;23;20092;-89
2023/06/23 13:40:58;;;;;;;3.63;2.78;;;;;;;;;;6209985;23;20044;-83
2023/06/23 13:43:24;;;;;;;6.68;3.05;;;;;;;;;;6210219;23;20342;-85
2023/06/23 13:45:50;;;;;;;4.55;3.20;;;;;;;;;;6209821;23;20020;-87
2023/06/23 13:48:18;;;;;;;2.90;2.60;;;;;;;;;;6210293;23;20013;-83
2023/06/23 13:50:44;;;;;;;4.60;3.08;;;;;;;;;;6212378;23;20017;-86
2023/06/23 13:53:10;;;;;;;3.97;3.28;;;;;;;;;;6212220;23;20087;-84
2023/06/23 13:55:36;;;;;;;2.80;2.60;;;;;;;;;;6209611;23;20067;-85
2023/06/23 13:58:03;;;;;;;2.83;2.45;;;;;;;;;;6210481;23;20374;-85
2023/06/23 14:00:31;;;;;;;4.28;2.45;;;;;;;;;;6210130;23;20047;-85
2023/06/23 14:02:57;;;;;;;3.10;2.80;;;;;;;;;;6210820;23;20043;-86
2023/06/23 14:05:24;;;;;;;2.88;2.20;;;;;;;;;;6210024;23;20023;-84
2023/06/23 14:07:50;;;;;;;3.10;2.70;;;;;;;;;;6210260;23;20020;-87
2023/06/23 14:10:16;;;;;;;1.42;1.33;;;;;;;;;;6209701;23;20387;-85
2023/06/23 14:12:42;;;;;;;2.90;2.60;;;;;;;;;;6212049;23;20015;-84
2023/06/23 14:15:08;;;;;;;3.45;2.60;;;;;;;;;;6184660;23;20044;-87
2023/06/23 14:17:34;;;;;;;3.47;2.40;;;;;;;;;;6212286;23;20017;-86
2023/06/23 14:20:00;;;;;;;3.53;2.50;;;;;;;;;;6210357;23;20341;-90
2023/06/23 14:22:26;;;;;;;4.45;2.17;;;;;;;;;;6210034;23;20013;-86
2023/06/23 14:24:52;;;;;;;2.00;1.80;;;;;;;;;;6209834;23;20017;-87
2023/06/23 14:27:18;;;;;;;2.78;2.47;;;;;;;;;;6209198;23;20016;-86
2023/06/23 14:29:45;;;;;;;3.90;2.58;;;;;;;;;;6209522;23;20719;-84
2023/06/23 14:32:11;;;;;;;2.63;2.08;;;;;;;;;;6210393;23;20473;-85
2023/06/23 14:34:37;;;;;;;2.88;2.63;;;;;;;;;;6210353;23;20009;-86
2023/06/23 14:37:03;;;;;;;3.35;2.35;;;;;;;;;;6210243;23;20052;-86
2023/06/23 14:39:30;;;;;;;3.45;2.53;;;;;;;;;;6210082;23;20016;-87
2023/06/23 14:41:56;;;;;;;4.97;2.70;;;;;;;;;;6211448;23;20019;-85